createdAt,value
2023-05-10T00:06:37.465Z,3.10
2023-05-10T00:09:05.985Z,3.10
2023-05-10T00:11:35.081Z,2.85
2023-05-10T00:14:03.808Z,2.75
2023-05-10T00:16:34.243Z,2.92
2023-05-10T00:19:04.558Z,3.20
2023-05-10T00:21:34.927Z,3.40
2023-05-10T00:24:04.506Z,3.05
2023-05-10T00:26:33.219Z,2.70
2023-05-10T00:29:02.994Z,3.05
2023-05-10T00:31:33.275Z,3.70
2023-05-10T00:34:01.691Z,3.42
2023-05-10T00:36:30.844Z,3.35
2023-05-10T00:39:00.217Z,3.28
2023-05-10T00:41:29.222Z,2.70
2023-05-10T00:43:58.682Z,3.20
2023-05-10T00:46:27.842Z,3.08
2023-05-10T00:48:58.829Z,3.30
2023-05-10T00:51:27.428Z,3.25
2023-05-10T00:53:57.398Z,3.58
2023-05-10T00:56:27.224Z,2.90
2023-05-10T00:58:56.440Z,2.85
2023-05-10T01:01:25.426Z,3.53
2023-05-10T01:03:54.649Z,3.10
2023-05-10T01:06:26.687Z,3.67
2023-05-10T01:21:52.135Z,3.25
2023-05-10T01:24:58.980Z,3.10
2023-05-10T01:27:44.749Z,2.95
2023-05-10T01:30:51.897Z,2.97
2023-05-10T01:33:28.339Z,3.20
2023-05-10T01:36:05.004Z,3.13
2023-05-10T01:41:14.327Z,2.70
2023-05-10T01:43:50.425Z,3.20
2023-05-10T01:46:24.063Z,2.70
2023-05-10T01:48:57.162Z,3.13
2023-05-10T01:51:27.397Z,2.60
2023-05-10T01:54:00.461Z,2.40
2023-05-10T01:56:32.192Z,2.60
2023-05-10T01:59:05.818Z,2.33
2023-05-10T02:01:35.021Z,2.42
2023-05-10T02:04:05.964Z,2.40
2023-05-10T02:06:36.090Z,1.98
2023-05-10T02:09:05.146Z,2.13
2023-05-10T02:11:34.179Z,2.30
2023-05-10T02:14:03.541Z,1.55
2023-05-10T02:16:32.316Z,1.77
2023-05-10T02:19:05.416Z,1.90
2023-05-10T02:21:36.549Z,2.17
2023-05-10T02:24:05.864Z,2.03
2023-05-10T03:01:09.272Z,1.27
2023-05-10T03:03:39.283Z,1.58
2023-05-10T03:06:07.744Z,1.50
2023-05-10T03:08:36.194Z,1.38
2023-05-10T03:11:27.742Z,1.70
2023-05-10T03:14:14.544Z,1.63
2023-05-10T03:16:48.300Z,1.70
2023-05-10T03:19:27.757Z,1.52
2023-05-10T03:22:00.875Z,1.63
2023-05-10T03:24:38.005Z,1.88
2023-05-10T04:11:43.330Z,2.15
2023-05-10T04:14:12.825Z,1.88
2023-05-10T04:16:42.009Z,2.38
2023-05-10T04:19:10.611Z,2.00
2023-05-10T04:21:39.157Z,2.63
2023-05-10T04:24:09.164Z,2.03
2023-05-10T04:26:38.387Z,1.98
2023-05-10T04:29:10.308Z,2.20
2023-05-10T04:31:38.805Z,2.10
2023-05-10T04:34:07.079Z,2.10
2023-05-10T04:36:37.000Z,2.10
2023-05-10T04:39:05.649Z,1.55
2023-05-10T04:41:33.873Z,1.80
2023-05-10T04:44:02.088Z,1.88
2023-05-10T04:54:50.488Z,1.33
2023-05-10T04:57:18.287Z,1.40
2023-05-10T04:59:47.167Z,1.20
2023-05-10T05:02:16.159Z,1.50
2023-05-10T05:04:44.192Z,1.20
2023-05-10T05:07:12.141Z,1.30
2023-05-10T05:09:40.213Z,1.77
2023-05-10T05:12:09.943Z,1.17
2023-05-10T05:14:37.951Z,0.82
2023-05-10T05:17:11.948Z,1.17
2023-05-10T05:19:40.017Z,1.30
2023-05-10T05:22:09.441Z,1.13
2023-05-10T05:24:40.482Z,0.98
2023-05-10T05:27:10.068Z,1.17
2023-05-10T05:29:38.124Z,1.20
2023-05-10T05:32:06.645Z,0.90
2023-05-10T05:34:34.873Z,0.82
2023-05-10T05:37:02.852Z,0.82
2023-05-10T05:39:30.851Z,0.95
2023-05-10T05:41:59.698Z,1.00
2023-05-10T05:44:30.090Z,0.85
2023-05-10T05:46:58.154Z,1.30
2023-05-10T05:49:26.245Z,1.75
2023-05-10T05:51:54.342Z,1.17
2023-05-10T05:54:22.810Z,1.88
2023-05-10T05:56:50.901Z,1.88
2023-05-10T05:59:18.831Z,1.67
2023-05-10T06:01:48.380Z,1.70
2023-05-10T06:04:16.580Z,1.50
2023-05-10T06:06:45.229Z,1.77
2023-05-10T06:09:13.542Z,1.30
2023-05-10T06:11:41.903Z,1.40
2023-05-10T06:14:10.629Z,1.48
2023-05-10T06:16:38.822Z,1.40
2023-05-10T06:19:08.431Z,1.02
2023-05-10T06:21:36.564Z,1.25
2023-05-10T06:24:05.012Z,1.15
2023-05-10T06:26:33.185Z,1.20
2023-05-10T06:29:01.179Z,1.40
2023-05-10T06:31:29.426Z,0.90
2023-05-10T06:33:57.397Z,1.52
2023-05-10T06:36:27.736Z,1.10
2023-05-10T06:38:56.141Z,1.10
2023-05-10T06:41:25.096Z,1.00
2023-05-10T06:43:53.171Z,1.10
2023-05-10T06:46:21.422Z,0.90
2023-05-10T06:48:49.540Z,1.17
2023-05-10T06:51:19.907Z,1.20
2023-05-10T06:53:49.444Z,1.23
2023-05-10T06:56:17.573Z,1.35
2023-05-10T06:58:45.664Z,1.20
2023-05-10T07:01:13.853Z,1.35
2023-05-10T07:03:41.993Z,1.20
2023-05-10T07:06:21.566Z,1.42
2023-05-10T07:08:59.682Z,1.20
2023-05-10T07:11:28.132Z,1.38
2023-05-10T07:13:56.382Z,1.30
2023-05-10T07:16:26.477Z,1.10
2023-05-10T07:18:54.958Z,1.55
2023-05-10T07:21:25.336Z,1.38
2023-05-10T07:23:53.635Z,1.15
2023-05-10T07:26:23.316Z,1.25
2023-05-10T07:28:51.733Z,1.50
2023-05-10T07:31:19.812Z,1.10
2023-05-10T07:33:48.098Z,1.10
2023-05-10T07:36:16.021Z,1.20
2023-05-10T07:38:44.163Z,1.20
2023-05-10T07:41:13.600Z,0.85
2023-05-10T07:43:43.300Z,1.10
2023-05-10T07:46:12.290Z,1.15
2023-05-10T07:48:40.602Z,1.40
2023-05-10T07:51:10.675Z,1.10
2023-05-10T07:53:39.796Z,0.90
2023-05-10T07:56:23.010Z,1.00
2023-05-10T07:58:53.246Z,0.88
2023-05-10T08:01:21.690Z,1.00
2023-05-10T08:03:50.219Z,0.93
2023-05-10T08:06:19.390Z,0.90
2023-05-10T08:08:50.595Z,1.05
2023-05-10T08:11:19.199Z,1.00
2023-05-10T08:13:47.466Z,0.80
2023-05-10T08:16:17.107Z,1.10
2023-05-10T08:18:46.366Z,1.15
2023-05-10T08:21:15.007Z,1.20
2023-05-10T08:23:45.185Z,1.05
2023-05-10T08:26:13.697Z,1.20
2023-05-10T08:28:41.683Z,1.15
2023-05-10T08:31:09.886Z,1.00
2023-05-10T08:33:39.632Z,1.20
2023-05-10T08:36:08.455Z,0.90
2023-05-10T08:38:36.724Z,0.77
2023-05-10T08:41:06.579Z,0.95
2023-05-10T08:43:37.302Z,1.10
2023-05-10T08:46:09.072Z,1.10
2023-05-10T08:48:39.208Z,1.27
2023-05-10T08:51:09.455Z,1.20
2023-05-10T08:53:40.730Z,0.90
2023-05-10T08:56:09.341Z,0.98
2023-05-10T08:58:38.082Z,1.10
2023-05-10T09:01:07.369Z,1.08
2023-05-10T09:03:35.568Z,1.10
2023-05-10T09:06:06.346Z,1.10
2023-05-10T09:08:34.904Z,1.10
2023-05-10T09:11:04.280Z,1.40
2023-05-10T09:13:33.320Z,1.38
2023-05-10T09:16:07.121Z,1.00
2023-05-10T09:18:48.472Z,1.10
2023-05-10T09:21:17.997Z,1.17
2023-05-10T09:23:48.225Z,1.33
2023-05-10T09:26:17.443Z,1.38
2023-05-10T09:28:55.701Z,1.58
2023-05-10T09:31:25.057Z,1.35
2023-05-10T09:33:53.608Z,1.80
2023-05-10T09:36:23.273Z,1.63
2023-05-10T09:38:53.079Z,1.55
2023-05-10T09:41:22.372Z,1.73
2023-05-10T09:43:51.037Z,1.58
2023-05-10T09:46:19.239Z,1.48
2023-05-10T09:48:48.850Z,1.90
2023-05-10T09:51:26.014Z,1.35
2023-05-10T09:54:11.893Z,1.88
2023-05-10T09:56:41.906Z,1.90
2023-05-10T09:59:13.857Z,1.95
2023-05-10T10:01:42.877Z,2.05
2023-05-10T10:04:11.797Z,1.58
2023-05-10T10:06:42.108Z,1.70
2023-05-10T10:09:10.579Z,1.50
2023-05-10T10:11:39.861Z,1.80
2023-05-10T10:14:08.084Z,1.90
2023-05-10T10:16:36.304Z,1.60
2023-05-10T10:19:04.584Z,1.55
2023-05-10T10:21:32.843Z,1.85
2023-05-10T10:24:03.231Z,1.73
2023-05-10T10:26:31.715Z,1.63
2023-05-10T10:29:12.143Z,1.58
2023-05-10T10:31:46.581Z,1.48
2023-05-10T10:34:27.474Z,1.10
2023-05-10T10:36:57.625Z,1.25
2023-05-10T10:39:27.872Z,0.88
2023-05-10T10:41:57.534Z,0.95
2023-05-10T10:44:27.758Z,0.80
2023-05-10T10:47:13.109Z,0.75
2023-05-10T10:49:46.192Z,1.00
2023-05-10T10:52:24.360Z,0.63
2023-05-10T10:54:58.557Z,0.93
2023-05-10T10:57:27.846Z,0.88
2023-05-10T11:00:23.007Z,1.00
2023-05-10T11:02:53.081Z,0.80
2023-05-10T11:05:46.175Z,0.77
2023-05-10T11:08:27.284Z,0.80
2023-05-10T11:11:10.552Z,0.80
2023-05-10T11:13:44.209Z,0.80
2023-05-10T11:16:15.535Z,0.70
2023-05-10T11:18:55.295Z,0.70
2023-05-10T11:21:24.189Z,0.88
2023-05-10T11:23:57.221Z,0.88
2023-05-10T11:26:31.727Z,0.90
2023-05-10T11:29:02.139Z,1.30
2023-05-10T11:31:31.001Z,1.27
2023-05-10T11:34:03.089Z,1.00
2023-05-10T11:36:35.134Z,0.93
2023-05-10T11:39:04.824Z,0.82
2023-05-10T11:41:34.507Z,0.52
2023-05-10T11:44:03.859Z,0.73
2023-05-10T11:46:32.247Z,0.70
2023-05-10T11:49:03.141Z,0.50
2023-05-10T11:51:34.266Z,0.60
2023-05-10T11:54:02.444Z,0.77
2023-05-10T11:56:30.573Z,0.80
2023-05-10T11:59:01.469Z,0.65
2023-05-10T12:01:29.923Z,0.50
2023-05-10T12:04:01.636Z,0.60
2023-05-10T12:06:32.486Z,0.70
2023-05-10T12:09:00.984Z,0.77
2023-05-10T12:11:30.131Z,0.60
2023-05-10T12:14:00.113Z,0.45
2023-05-10T12:16:30.959Z,0.52
2023-05-10T12:19:00.479Z,0.50
2023-05-10T12:21:31.810Z,0.75
2023-05-10T12:24:03.518Z,0.60
2023-05-10T12:26:32.255Z,0.57
2023-05-10T12:29:16.874Z,0.63
2023-05-10T12:31:53.039Z,0.60
2023-05-10T12:34:28.219Z,0.65
2023-05-10T12:36:57.060Z,0.60
2023-05-10T12:39:25.370Z,0.80
2023-05-10T12:41:53.974Z,0.60
2023-05-10T12:44:23.804Z,0.73
2023-05-10T12:46:51.901Z,0.70
2023-05-10T12:49:21.062Z,0.52
2023-05-10T12:51:49.186Z,0.60
2023-05-10T12:54:17.490Z,0.30
2023-05-10T12:56:45.701Z,0.38
2023-05-10T12:59:14.118Z,0.20
2023-05-10T13:01:43.816Z,0.20
2023-05-10T13:04:12.058Z,0.32
2023-05-10T13:06:40.135Z,0.50
2023-05-10T13:09:08.339Z,0.35
2023-05-10T13:11:36.454Z,0.30
2023-05-10T13:14:04.779Z,0.75
2023-05-10T13:16:32.926Z,0.40
2023-05-10T13:19:02.760Z,0.30
2023-05-10T13:21:31.720Z,0.35
2023-05-10T13:24:01.889Z,0.10
2023-05-10T13:26:30.310Z,0.30
2023-05-10T13:28:58.461Z,0.20
2023-05-10T13:31:26.925Z,0.30
2023-05-10T13:33:55.201Z,0.20
2023-05-10T13:36:25.348Z,0.40
2023-05-10T13:38:53.742Z,0.28
2023-05-10T13:41:22.113Z,0.20
2023-05-10T13:43:50.837Z,0.20
2023-05-10T13:46:18.969Z,0.20
2023-05-10T13:48:47.062Z,0.13
2023-05-10T13:51:15.186Z,0.10
2023-05-10T13:53:44.826Z,0.10
2023-05-10T13:56:13.596Z,0.10
2023-05-10T13:58:41.753Z,0.30
2023-05-10T14:01:09.819Z,0.25
2023-05-10T14:03:38.338Z,0.25
2023-05-10T14:06:08.714Z,0.17
2023-05-10T14:08:38.406Z,0.30
2023-05-10T14:11:08.008Z,0.20
2023-05-10T14:13:36.156Z,0.40
2023-05-10T14:16:04.479Z,0.17
2023-05-10T14:18:32.645Z,0.20
2023-05-10T14:21:00.784Z,0.30
2023-05-10T14:23:29.992Z,0.30
2023-05-10T14:25:58.048Z,0.40
2023-05-10T14:28:27.990Z,0.50
2023-05-10T14:30:56.385Z,0.45
2023-05-10T14:33:24.605Z,0.30
2023-05-10T14:35:52.816Z,0.30
2023-05-10T14:38:20.760Z,0.52
2023-05-10T14:40:48.887Z,0.30
2023-05-10T14:43:17.014Z,0.30
2023-05-10T14:45:46.897Z,0.22
2023-05-10T14:48:17.492Z,0.10
2023-05-10T14:50:47.308Z,0.08
2023-05-10T14:53:15.400Z,0.00
2023-05-10T14:55:43.621Z,0.10
2023-05-10T14:58:11.808Z,0.08
2023-05-10T15:00:39.922Z,0.10
2023-05-10T15:03:10.375Z,0.00
2023-05-10T15:05:39.051Z,0.10
2023-05-10T15:08:07.241Z,0.15
2023-05-10T15:10:35.599Z,0.10
2023-05-10T15:13:04.615Z,0.00
2023-05-10T15:15:32.972Z,0.10
2023-05-10T15:18:01.055Z,0.10
2023-05-10T15:20:30.717Z,0.00
2023-05-10T15:22:58.809Z,0.00
2023-05-10T15:25:27.295Z,0.00
2023-05-10T15:27:55.511Z,0.10
2023-05-10T15:30:24.026Z,0.55
2023-05-10T15:32:52.054Z,0.00
2023-05-10T15:35:20.299Z,0.00
2023-05-10T15:37:50.705Z,0.00
2023-05-10T15:40:18.954Z,0.00
2023-05-10T15:42:46.915Z,0.00
2023-05-10T15:45:16.643Z,0.10
2023-05-10T15:47:45.906Z,0.03
2023-05-10T15:50:14.279Z,0.17
2023-05-10T15:52:42.648Z,0.08
2023-05-10T15:55:15.640Z,0.00
2023-05-10T15:57:45.146Z,0.10
2023-05-10T16:00:14.412Z,0.10
2023-05-10T16:02:42.724Z,0.17
2023-05-10T16:05:11.375Z,0.03
2023-05-10T16:07:40.592Z,0.03
2023-05-10T16:10:12.140Z,0.10
2023-05-10T16:12:40.815Z,0.10
2023-05-10T16:15:10.035Z,0.30
2023-05-10T16:17:38.232Z,0.15
2023-05-10T16:20:07.720Z,0.10
2023-05-10T16:22:36.694Z,0.10
2023-05-10T16:25:05.631Z,0.43
2023-05-10T16:27:35.532Z,0.20
2023-05-10T16:30:03.917Z,0.10
2023-05-10T16:32:32.155Z,0.20
2023-05-10T16:35:00.747Z,0.38
2023-05-10T16:37:29.274Z,0.50
2023-05-10T16:39:58.003Z,0.17
2023-05-10T16:42:26.413Z,0.10
2023-05-10T16:44:56.688Z,0.22
2023-05-10T16:47:27.033Z,0.10
2023-05-10T16:49:55.297Z,0.10
2023-05-10T16:52:24.133Z,0.20
2023-05-10T16:54:54.710Z,0.10
2023-05-10T16:57:23.648Z,0.20
2023-05-10T16:59:55.310Z,0.30
2023-05-10T17:02:25.452Z,0.40
2023-05-10T17:04:55.618Z,0.40
2023-05-10T17:07:26.168Z,0.30
2023-05-10T17:09:55.048Z,0.20
2023-05-10T17:12:23.492Z,0.10
2023-05-10T17:14:52.233Z,0.10
2023-05-10T17:17:20.719Z,0.30
2023-05-10T17:19:50.801Z,0.10
2023-05-10T17:22:19.668Z,0.10
2023-05-10T17:24:48.199Z,0.10
2023-05-10T17:27:16.820Z,0.15
2023-05-10T17:29:45.336Z,0.10
2023-05-10T17:32:13.996Z,0.05
2023-05-10T17:34:42.770Z,0.30
2023-05-10T17:37:12.979Z,0.08
2023-05-10T17:39:41.636Z,0.00
2023-05-10T17:42:10.139Z,0.20
2023-05-10T17:44:38.900Z,0.10
2023-05-10T17:47:07.341Z,0.25
2023-05-10T17:49:35.999Z,0.20
2023-05-10T17:52:04.607Z,0.30
2023-05-10T17:54:35.115Z,0.28
2023-05-10T17:57:04.186Z,0.10
2023-05-10T17:59:32.816Z,0.10
2023-05-10T18:02:03.449Z,0.38
2023-05-10T18:04:31.981Z,0.13
2023-05-10T18:07:03.434Z,0.10
2023-05-10T18:09:32.330Z,0.20
2023-05-10T18:12:03.691Z,0.10
2023-05-10T18:14:40.446Z,0.10
2023-05-10T18:17:10.418Z,0.20
2023-05-10T18:19:39.070Z,0.20
2023-05-10T18:22:10.516Z,0.20
2023-05-10T18:24:40.294Z,0.20
2023-05-10T18:27:10.788Z,0.38
2023-05-10T18:29:39.846Z,0.20
2023-05-10T18:32:08.323Z,0.10
2023-05-10T18:34:37.038Z,0.22
2023-05-10T18:37:08.106Z,0.70
2023-05-10T18:39:38.220Z,0.40
2023-05-10T18:42:09.415Z,0.40
2023-05-10T18:44:38.077Z,0.30
2023-05-10T18:47:07.217Z,0.22
2023-05-10T18:49:35.942Z,0.30
2023-05-10T18:52:04.508Z,0.20
2023-05-10T18:54:33.247Z,0.30
2023-05-10T18:57:02.045Z,0.20
2023-05-10T18:59:32.693Z,0.20
2023-05-10T19:02:01.953Z,0.10
2023-05-10T19:04:30.906Z,0.20
2023-05-10T19:07:01.316Z,0.28
2023-05-10T19:09:29.936Z,0.35
2023-05-10T19:11:58.538Z,0.20
2023-05-10T19:14:27.176Z,0.20
2023-05-10T19:16:57.157Z,0.20
2023-05-10T19:19:26.733Z,0.52
2023-05-10T19:21:55.540Z,0.30
2023-05-10T19:24:26.178Z,0.30
2023-05-10T19:26:57.077Z,0.68
2023-05-10T19:29:25.874Z,0.17
2023-05-10T19:31:56.552Z,0.20
2023-05-10T19:34:25.386Z,0.10
2023-05-10T19:36:54.302Z,0.30
2023-05-10T19:39:23.185Z,0.30
2023-05-10T19:41:53.037Z,0.20
2023-05-10T19:44:22.824Z,0.38
2023-05-10T19:46:53.648Z,0.40
2023-05-10T19:49:26.224Z,0.55
2023-05-10T19:51:55.174Z,1.33
2023-05-10T19:54:24.012Z,0.32
2023-05-10T19:56:52.822Z,0.30
2023-05-10T19:59:21.454Z,0.40
2023-05-10T20:01:50.098Z,0.57
2023-05-10T20:04:18.720Z,0.55
2023-05-10T20:06:49.067Z,0.30
2023-05-10T20:09:17.817Z,0.50
2023-05-10T20:11:46.373Z,0.43
2023-05-10T20:14:17.048Z,0.88
2023-05-10T20:16:46.118Z,0.30
2023-05-10T20:19:15.371Z,0.40
2023-05-10T20:21:44.594Z,0.30
2023-05-10T20:24:15.095Z,0.50
2023-05-10T20:26:43.831Z,0.20
2023-05-10T20:29:13.608Z,0.30
2023-05-10T20:31:42.353Z,0.45
2023-05-10T20:34:11.200Z,0.30
2023-05-10T20:36:39.894Z,0.40
2023-05-10T20:39:09.783Z,0.40
2023-05-10T20:41:40.062Z,0.20
2023-05-10T20:44:08.805Z,0.40
2023-05-10T20:46:38.228Z,0.40
2023-05-10T20:49:07.016Z,0.43
2023-05-10T20:51:35.536Z,0.50
2023-05-10T20:54:04.734Z,0.40
2023-05-10T20:56:34.101Z,0.30
2023-05-10T20:59:03.861Z,0.40
2023-05-10T21:01:33.015Z,0.30
2023-05-10T21:04:01.359Z,0.40
2023-05-10T21:06:29.457Z,0.45
2023-05-10T21:08:57.830Z,0.32
2023-05-10T21:11:26.070Z,0.30
2023-05-10T21:13:54.313Z,0.40
2023-05-10T21:16:23.853Z,0.50
2023-05-10T21:18:52.390Z,0.40
2023-05-10T21:21:20.601Z,0.45
2023-05-10T21:23:48.936Z,0.68
2023-05-10T21:26:17.445Z,0.60
2023-05-10T21:28:46.441Z,0.57
2023-05-10T21:31:14.515Z,0.57
2023-05-10T21:33:44.282Z,0.57
2023-05-10T21:36:12.813Z,0.50
2023-05-10T21:38:42.674Z,0.47
2023-05-10T21:41:11.161Z,0.70
2023-05-10T21:43:39.291Z,0.17
2023-05-10T21:46:08.415Z,0.30
2023-05-10T21:48:36.436Z,0.40
2023-05-10T21:51:06.082Z,0.40
2023-05-10T21:53:34.509Z,0.30
2023-05-10T21:56:02.515Z,0.30
2023-05-10T21:58:30.683Z,0.75
2023-05-10T22:00:58.937Z,0.45
2023-05-10T22:03:27.367Z,0.35
2023-05-10T22:05:55.650Z,0.50
2023-05-10T22:08:26.054Z,0.20
2023-05-10T22:10:56.642Z,0.30
2023-05-10T22:13:26.590Z,0.30
2023-05-10T22:15:54.802Z,0.20
2023-05-10T22:18:23.320Z,0.50
2023-05-10T22:20:51.438Z,0.28
2023-05-10T22:23:19.595Z,0.20
2023-05-10T22:29:58.729Z,0.13
2023-05-10T22:32:32.057Z,0.20
2023-05-10T22:35:00.052Z,0.20
2023-05-10T22:37:27.862Z,0.30
2023-05-10T22:39:55.696Z,0.32
2023-05-10T22:42:23.472Z,0.30
2023-05-10T22:44:51.605Z,0.20
2023-05-10T22:47:20.818Z,0.30
2023-05-10T22:49:48.644Z,0.20
2023-05-10T22:52:16.451Z,0.35
2023-05-10T22:54:44.578Z,0.38
2023-05-10T22:57:12.366Z,0.47
2023-05-10T22:59:40.249Z,0.30
2023-05-10T23:02:09.574Z,0.20
2023-05-10T23:04:42.600Z,0.40
2023-05-10T23:07:15.384Z,0.40
2023-05-10T23:30:58.152Z,0.30
2023-05-10T23:33:27.222Z,0.30
2023-05-10T23:35:55.628Z,0.20
2023-05-10T23:38:24.033Z,0.35
2023-05-10T23:40:52.616Z,0.40
2023-05-10T23:43:21.979Z,0.30
2023-05-10T23:45:58.292Z,0.45
2023-05-10T23:50:54.200Z,0.30
2023-05-10T23:53:22.213Z,0.25
